createdAt,value
2023-04-15T00:01:04.266Z,5.38
2023-04-15T00:04:07.199Z,5.34
2023-04-15T00:07:10.514Z,5.57
2023-04-15T00:10:14.501Z,5.72
2023-04-15T00:13:17.279Z,5.67
2023-04-15T00:16:20.154Z,5.78
2023-04-15T00:19:23.497Z,5.91
2023-04-15T00:22:27.683Z,6.02
2023-04-15T00:25:30.772Z,6.10
2023-04-15T00:28:33.653Z,5.88
2023-04-15T00:31:36.944Z,6.05
2023-04-15T00:34:39.655Z,5.94
2023-04-15T00:37:45.922Z,5.97
2023-04-15T00:40:49.040Z,6.10
2023-04-15T00:43:53.069Z,6.11
2023-04-15T00:46:56.180Z,6.24
2023-04-15T00:49:59.444Z,6.35
2023-04-15T00:53:01.958Z,6.44
2023-04-15T00:56:05.335Z,6.47
2023-04-15T00:59:09.117Z,6.39
2023-04-15T01:02:12.325Z,6.47
2023-04-15T01:05:17.657Z,6.46
2023-04-15T01:08:20.610Z,6.55
2023-04-15T01:11:24.191Z,6.66
2023-04-15T01:14:27.392Z,6.63
2023-04-15T01:17:30.500Z,6.59
2023-04-15T01:20:34.989Z,6.58
2023-04-15T01:23:38.945Z,6.66
2023-04-15T01:26:44.515Z,6.78
2023-04-15T01:29:47.325Z,6.81
2023-04-15T01:32:50.740Z,6.74
2023-04-15T01:35:55.106Z,6.58
2023-04-15T01:39:01.524Z,6.38
2023-04-15T01:42:04.962Z,6.31
2023-04-15T01:45:09.592Z,6.36
2023-04-15T01:48:13.809Z,6.31
2023-04-15T01:51:17.074Z,6.15
2023-04-15T01:54:19.864Z,6.31
2023-04-15T01:57:22.714Z,6.22
2023-04-15T02:00:25.601Z,6.39
2023-04-15T02:03:29.997Z,6.27
2023-04-15T02:06:33.490Z,6.31
2023-04-15T02:09:36.216Z,6.32
2023-04-15T02:12:39.257Z,6.34
2023-04-15T02:15:47.405Z,6.31
2023-04-15T02:18:52.047Z,6.24
2023-04-15T02:21:55.320Z,6.19
2023-04-15T02:24:58.409Z,6.14
2023-04-15T02:28:01.394Z,6.06
2023-04-15T02:31:08.196Z,6.01
2023-04-15T02:34:11.392Z,5.93
2023-04-15T02:37:14.762Z,5.97
2023-04-15T02:40:17.985Z,5.93
2023-04-15T02:43:21.897Z,5.81
2023-04-15T02:46:26.200Z,5.57
2023-04-15T02:49:31.060Z,5.46
2023-04-15T02:52:33.858Z,5.53
2023-04-15T02:55:36.574Z,5.43
2023-04-15T02:58:41.073Z,5.35
2023-04-15T03:01:43.996Z,5.32
2023-04-15T03:04:46.841Z,5.43
2023-04-15T03:07:49.562Z,5.57
2023-04-15T03:10:53.890Z,5.42
2023-04-15T03:13:58.634Z,5.46
2023-04-15T03:17:07.092Z,5.62
2023-04-15T03:20:10.424Z,5.51
2023-04-15T03:23:14.021Z,5.28
2023-04-15T03:26:30.521Z,5.49
2023-04-15T03:29:46.712Z,5.59
2023-04-15T03:32:53.349Z,5.54
2023-04-15T03:35:56.446Z,5.54
2023-04-15T03:38:59.914Z,5.59
2023-04-15T03:42:03.751Z,5.71
2023-04-15T03:45:07.679Z,5.57
2023-04-15T03:48:16.662Z,5.53
2023-04-15T03:51:20.124Z,5.53
2023-04-15T03:54:23.143Z,5.61
2023-04-15T03:57:25.599Z,5.66
2023-04-15T04:00:29.105Z,5.73
2023-04-15T04:03:32.053Z,5.71
2023-04-15T04:06:34.706Z,5.80
2023-04-15T04:09:39.228Z,5.84
2023-04-15T04:12:41.981Z,5.93
2023-04-15T04:15:44.693Z,5.98
2023-04-15T04:18:47.452Z,6.11
2023-04-15T04:21:50.395Z,6.26
2023-04-15T04:24:53.242Z,6.41
2023-04-15T04:27:56.105Z,6.51
2023-04-15T04:30:59.467Z,6.66
2023-04-15T04:34:02.404Z,6.80
2023-04-15T04:37:05.416Z,6.73
2023-04-15T04:40:09.199Z,6.71
2023-04-15T04:43:12.173Z,6.81
2023-04-15T04:46:15.051Z,6.80
2023-04-15T04:49:17.961Z,6.77
2023-04-15T04:52:20.812Z,6.79
2023-04-15T04:55:23.637Z,6.68
2023-04-15T04:58:26.420Z,6.71
2023-04-15T05:01:29.538Z,6.83
2023-04-15T05:04:32.102Z,6.71
2023-04-15T05:07:35.045Z,6.87
2023-04-15T05:10:37.808Z,7.02
2023-04-15T05:13:40.497Z,7.32
2023-04-15T05:16:43.136Z,7.62
2023-04-15T05:19:45.866Z,7.41
2023-04-15T05:22:48.549Z,7.38
2023-04-15T05:25:51.274Z,7.48
2023-04-15T05:28:54.433Z,7.48
2023-04-15T05:31:57.506Z,7.57
2023-04-15T05:35:00.172Z,7.69
2023-04-15T05:38:02.841Z,7.74
2023-04-15T05:41:05.758Z,7.65
2023-04-15T05:44:08.910Z,7.73
2023-04-15T05:47:11.762Z,7.81
2023-04-15T05:50:14.555Z,7.79
2023-04-15T05:53:17.277Z,7.98
2023-04-15T05:56:20.868Z,8.13
2023-04-15T05:59:23.372Z,8.16
2023-04-15T06:02:26.862Z,8.18
2023-04-15T06:05:29.324Z,8.27
2023-04-15T06:08:32.046Z,8.25
2023-04-15T06:11:34.910Z,8.37
2023-04-15T06:14:38.670Z,8.40
2023-04-15T06:17:41.327Z,8.30
2023-04-15T06:20:44.150Z,8.49
2023-04-15T06:23:46.852Z,8.80
2023-04-15T06:26:49.731Z,8.94
2023-04-15T06:29:52.764Z,9.09
2023-04-15T06:32:56.096Z,9.12
2023-04-15T06:35:59.051Z,9.37
2023-04-15T06:39:02.461Z,9.72
2023-04-15T06:42:05.341Z,10.74
2023-04-15T06:45:08.952Z,11.58
2023-04-15T06:48:12.147Z,12.33
2023-04-15T06:51:14.817Z,11.33
2023-04-15T06:54:17.519Z,11.49
2023-04-15T06:57:20.168Z,11.58
2023-04-15T07:00:22.865Z,11.77
2023-04-15T07:03:26.384Z,12.81
2023-04-15T07:06:28.911Z,11.36
2023-04-15T07:09:32.905Z,12.58
2023-04-15T07:12:35.980Z,14.08
2023-04-15T07:15:38.748Z,14.52
2023-04-15T07:18:41.422Z,14.50
2023-04-15T07:21:44.255Z,13.60
2023-04-15T07:24:47.193Z,14.51
2023-04-15T07:27:49.975Z,14.42
2023-04-15T07:30:53.136Z,14.32
2023-04-15T07:33:55.964Z,15.33
2023-04-15T07:36:58.529Z,14.70
2023-04-15T07:40:01.788Z,14.31
2023-04-15T07:43:04.678Z,13.81
2023-04-15T07:46:07.542Z,13.02
2023-04-15T07:49:10.407Z,12.52
2023-04-15T07:52:13.031Z,12.35
2023-04-15T07:55:19.324Z,12.12
2023-04-15T07:58:22.121Z,11.85
2023-04-15T08:01:24.574Z,11.91
2023-04-15T08:04:27.763Z,11.39
2023-04-15T08:07:31.230Z,11.16
2023-04-15T08:10:34.489Z,11.11
2023-04-15T08:13:37.254Z,11.15
2023-04-15T08:16:40.100Z,12.70
2023-04-15T08:19:43.788Z,13.48
2023-04-15T08:22:48.263Z,14.74
2023-04-15T08:25:51.335Z,16.31
2023-04-15T08:28:54.870Z,14.47
2023-04-15T08:31:59.498Z,13.72
2023-04-15T08:35:02.401Z,14.50
2023-04-15T08:38:04.818Z,14.66
2023-04-15T08:41:13.324Z,14.48
2023-04-15T08:44:16.347Z,14.54
2023-04-15T08:47:21.828Z,14.09
2023-04-15T08:50:25.384Z,15.30
2023-04-15T08:53:30.367Z,15.92
2023-04-15T08:56:33.466Z,17.01
2023-04-15T08:59:36.728Z,15.57
2023-04-15T09:02:41.312Z,14.66
2023-04-15T09:05:44.628Z,17.03
2023-04-15T09:08:47.681Z,16.62
2023-04-15T09:11:51.732Z,16.33
2023-04-15T09:14:54.946Z,17.23
2023-04-15T09:17:57.602Z,17.30
2023-04-15T09:21:09.089Z,15.06
2023-04-15T09:24:12.100Z,17.06
2023-04-15T09:27:17.680Z,17.22
2023-04-15T09:30:20.913Z,16.70
2023-04-15T09:33:24.646Z,17.80
2023-04-15T09:36:30.183Z,18.04
2023-04-15T09:39:52.508Z,18.86
2023-04-15T09:42:56.585Z,16.78
2023-04-15T09:45:59.363Z,16.46
2023-04-15T09:49:09.352Z,16.08
2023-04-15T09:52:14.367Z,17.42
2023-04-15T09:55:18.597Z,17.70
2023-04-15T09:58:23.555Z,18.52
2023-04-15T10:01:27.398Z,18.42
2023-04-15T10:04:31.165Z,17.62
2023-04-15T10:07:34.513Z,18.41
2023-04-15T10:10:37.461Z,18.33
2023-04-15T10:13:41.816Z,17.99
2023-04-15T10:16:49.071Z,17.63
2023-04-15T10:19:54.696Z,18.62
2023-04-15T10:22:57.902Z,18.86
2023-04-15T10:26:01.542Z,19.01
2023-04-15T10:29:05.188Z,17.76
2023-04-15T10:32:08.502Z,16.25
2023-04-15T10:35:11.967Z,16.42
2023-04-15T10:38:45.878Z,17.57
2023-04-15T10:42:08.901Z,17.98
2023-04-15T10:45:18.217Z,16.04
2023-04-15T10:48:21.101Z,15.44
2023-04-15T10:51:29.098Z,16.41
2023-04-15T10:54:33.645Z,17.86
2023-04-15T10:57:39.843Z,16.23
2023-04-15T11:00:52.367Z,15.01
2023-04-15T11:04:02.203Z,14.01
2023-04-15T11:07:38.836Z,13.92
2023-04-15T11:10:41.666Z,13.38
2023-04-15T11:13:52.553Z,12.95
2023-04-15T11:16:56.344Z,12.54
2023-04-15T11:19:58.917Z,11.57
2023-04-15T11:23:14.763Z,11.31
2023-04-15T11:26:18.196Z,10.96
2023-04-15T11:29:21.597Z,10.96
2023-04-15T11:32:24.209Z,11.06
2023-04-15T11:35:27.598Z,11.03
2023-04-15T11:38:31.528Z,11.07
2023-04-15T11:41:36.066Z,11.01
2023-04-15T11:44:38.825Z,11.35
2023-04-15T11:47:43.000Z,11.25
2023-04-15T11:50:46.050Z,11.73
2023-04-15T11:53:50.895Z,12.11
2023-04-15T11:56:54.638Z,11.77
2023-04-15T11:59:57.741Z,12.09
2023-04-15T12:03:24.907Z,12.74
2023-04-15T12:06:35.247Z,12.75
2023-04-15T12:09:38.377Z,12.91
2023-04-15T12:12:41.213Z,13.02
2023-04-15T12:15:44.817Z,14.17
2023-04-15T12:18:50.922Z,15.63
2023-04-15T12:22:00.355Z,15.84
2023-04-15T12:25:04.163Z,14.69
2023-04-15T12:28:12.976Z,16.36
2023-04-15T12:31:16.173Z,17.39
2023-04-15T12:34:32.076Z,17.95
2023-04-15T12:37:35.208Z,17.16
2023-04-15T12:40:37.817Z,17.30
2023-04-15T12:43:40.826Z,17.18
2023-04-15T12:46:43.886Z,16.27
2023-04-15T12:49:47.512Z,16.40
2023-04-15T12:52:50.371Z,14.85
2023-04-15T12:55:53.501Z,14.48
2023-04-15T12:58:56.378Z,13.62
2023-04-15T13:02:00.980Z,13.01
2023-04-15T13:05:04.072Z,12.80
2023-04-15T13:08:07.114Z,12.41
2023-04-15T13:11:09.673Z,11.92
2023-04-15T13:14:13.238Z,11.51
2023-04-15T13:17:18.982Z,11.21
2023-04-15T13:20:22.345Z,11.12
2023-04-15T13:23:24.916Z,10.88
2023-04-15T13:26:28.473Z,11.16
2023-04-15T13:29:30.855Z,11.64
2023-04-15T13:32:33.720Z,12.25
2023-04-15T13:35:37.144Z,12.36
2023-04-15T13:38:40.155Z,12.29
2023-04-15T13:41:43.122Z,11.94
2023-04-15T13:44:46.216Z,12.19
2023-04-15T13:47:48.837Z,12.15
2023-04-15T13:50:51.720Z,11.95
2023-04-15T13:53:54.248Z,12.38
2023-04-15T13:56:58.203Z,12.70
2023-04-15T14:00:00.828Z,12.73
2023-04-15T14:03:03.970Z,12.78
2023-04-15T14:06:06.888Z,12.51
2023-04-15T14:09:10.697Z,12.38
2023-04-15T14:12:13.953Z,11.98
2023-04-15T14:15:16.855Z,11.80
2023-04-15T14:18:19.590Z,11.88
2023-04-15T14:21:22.658Z,11.85
2023-04-15T14:24:25.243Z,11.66
2023-04-15T14:27:29.300Z,11.44
2023-04-15T14:30:31.733Z,11.26
2023-04-15T14:33:34.646Z,11.31
2023-04-15T14:36:37.336Z,11.20
2023-04-15T14:39:41.180Z,11.18
2023-04-15T14:42:43.929Z,11.40
2023-04-15T14:45:47.308Z,11.17
2023-04-15T14:48:50.049Z,11.16
2023-04-15T14:51:53.502Z,11.29
2023-04-15T14:54:56.904Z,11.37
2023-04-15T14:57:59.644Z,11.48
2023-04-15T15:01:03.320Z,11.57
2023-04-15T15:04:06.530Z,11.90
2023-04-15T15:07:09.398Z,12.18
2023-04-15T15:10:12.113Z,12.44
2023-04-15T15:13:15.820Z,12.66
2023-04-15T15:16:18.894Z,12.37
2023-04-15T15:19:21.985Z,12.56
2023-04-15T15:22:26.363Z,12.63
2023-04-15T15:25:28.795Z,12.36
2023-04-15T15:28:31.761Z,12.38
2023-04-15T15:31:37.308Z,12.57
2023-04-15T15:34:40.141Z,12.29
2023-04-15T15:37:43.485Z,12.21
2023-04-15T15:40:46.941Z,12.18
2023-04-15T15:43:49.805Z,12.29
2023-04-15T15:46:52.582Z,12.32
2023-04-15T15:49:55.569Z,11.95
2023-04-15T15:52:59.000Z,12.10
2023-04-15T15:56:03.730Z,12.08
2023-04-15T15:59:07.020Z,11.92
2023-04-15T16:02:16.861Z,11.85
2023-04-15T16:05:20.078Z,11.68
2023-04-15T16:08:22.749Z,11.49
2023-04-15T16:11:25.562Z,11.32
2023-04-15T16:14:28.293Z,11.24
2023-04-15T16:17:31.424Z,10.94
2023-04-15T16:20:34.402Z,10.80
2023-04-15T16:23:37.485Z,10.81
2023-04-15T16:26:41.241Z,10.92
2023-04-15T16:29:44.134Z,10.79
2023-04-15T16:32:46.757Z,10.50
2023-04-15T16:35:51.215Z,10.64
2023-04-15T16:38:54.130Z,10.55
2023-04-15T16:41:57.860Z,10.48
2023-04-15T16:45:00.680Z,10.49
2023-04-15T16:48:03.756Z,10.53
2023-04-15T16:51:06.708Z,10.44
2023-04-15T16:54:10.298Z,10.47
2023-04-15T16:57:13.195Z,10.42
2023-04-15T17:00:16.322Z,10.18
2023-04-15T17:03:19.176Z,10.28
2023-04-15T17:06:22.453Z,10.11
2023-04-15T17:09:25.198Z,9.81
2023-04-15T17:12:27.884Z,9.54
2023-04-15T17:15:30.743Z,9.60
2023-04-15T17:18:33.561Z,9.67
2023-04-15T17:21:36.201Z,9.72
2023-04-15T17:24:38.846Z,9.41
2023-04-15T17:27:41.724Z,9.09
2023-04-15T17:30:44.486Z,9.18
2023-04-15T17:33:56.100Z,9.20
2023-04-15T17:37:09.018Z,9.12
2023-04-15T17:40:12.369Z,9.12
2023-04-15T17:43:15.759Z,9.08
2023-04-15T17:46:19.421Z,9.10
2023-04-15T17:49:22.648Z,8.97
2023-04-15T17:52:25.144Z,8.84
2023-04-15T17:55:27.708Z,8.83
2023-04-15T17:58:31.319Z,8.74
2023-04-15T18:01:33.901Z,8.46
2023-04-15T18:04:36.918Z,8.28
2023-04-15T18:07:40.273Z,8.14
2023-04-15T18:10:43.200Z,8.33
2023-04-15T18:13:46.268Z,8.33
2023-04-15T18:16:49.498Z,8.35
2023-04-15T18:19:52.656Z,8.31
2023-04-15T18:22:55.804Z,8.30
2023-04-15T18:25:59.052Z,8.31
2023-04-15T18:29:02.264Z,8.24
2023-04-15T18:32:05.230Z,8.12
2023-04-15T18:35:08.996Z,7.94
2023-04-15T18:38:11.887Z,8.04
2023-04-15T18:41:15.232Z,7.92
2023-04-15T18:44:18.183Z,7.78
2023-04-15T18:47:21.157Z,7.80
2023-04-15T18:50:24.113Z,7.91
2023-04-15T18:53:28.081Z,7.68
2023-04-15T18:56:31.702Z,7.64
2023-04-15T18:59:34.613Z,7.79
2023-04-15T19:02:38.219Z,7.64
2023-04-15T19:05:41.422Z,7.60
2023-04-15T19:08:44.721Z,7.62
2023-04-15T19:11:47.776Z,7.65
2023-04-15T19:14:53.502Z,7.72
2023-04-15T19:17:56.399Z,7.68
2023-04-15T19:20:59.205Z,7.60
2023-04-15T19:24:02.109Z,7.72
2023-04-15T19:27:05.128Z,7.82
2023-04-15T19:30:08.939Z,7.89
2023-04-15T19:33:12.492Z,7.97
2023-04-15T19:36:15.727Z,7.88
2023-04-15T19:39:18.907Z,7.92
2023-04-15T19:42:21.815Z,8.06
2023-04-15T19:45:26.243Z,8.01
2023-04-15T19:48:29.013Z,7.95
2023-04-15T19:51:32.306Z,7.91
2023-04-15T19:54:35.208Z,7.86
2023-04-15T19:57:38.511Z,7.81
2023-04-15T20:00:41.320Z,7.80
2023-04-15T20:03:44.833Z,7.76
2023-04-15T20:06:47.810Z,7.82
2023-04-15T20:09:52.290Z,7.75
2023-04-15T20:12:55.465Z,7.76
2023-04-15T20:15:58.417Z,7.52
2023-04-15T20:19:07.443Z,7.26
2023-04-15T20:22:10.519Z,7.18
2023-04-15T20:25:13.545Z,7.05
2023-04-15T20:28:20.023Z,7.14
2023-04-15T20:31:22.890Z,7.15
2023-04-15T20:34:26.478Z,7.25
2023-04-15T20:37:33.014Z,7.17
2023-04-15T20:40:36.699Z,7.16
2023-04-15T20:43:39.141Z,7.10
2023-04-15T20:46:42.660Z,7.08
2023-04-15T20:49:47.366Z,7.02
2023-04-15T20:52:50.426Z,6.97
2023-04-15T20:55:53.206Z,6.90
2023-04-15T20:58:56.295Z,6.89
2023-04-15T21:01:59.104Z,6.90
2023-04-15T21:05:02.020Z,6.87
2023-04-15T21:08:05.084Z,6.87
2023-04-15T21:11:07.674Z,6.86
2023-04-15T21:14:10.510Z,6.89
2023-04-15T21:17:13.391Z,6.74
2023-04-15T21:20:16.264Z,6.84
2023-04-15T21:23:19.062Z,6.90
2023-04-15T21:26:21.873Z,6.90
2023-04-15T21:29:24.713Z,6.95
2023-04-15T21:32:27.462Z,7.06
2023-04-15T21:35:30.841Z,7.03
2023-04-15T21:38:34.120Z,7.11
2023-04-15T21:41:39.582Z,7.09
2023-04-15T21:44:42.374Z,7.06
2023-04-15T21:48:00.832Z,6.95
2023-04-15T21:51:08.414Z,7.09
2023-04-15T21:54:11.182Z,6.99
2023-04-15T21:57:14.000Z,6.87
2023-04-15T22:00:16.755Z,6.82
2023-04-15T22:03:19.765Z,6.89
2023-04-15T22:06:22.716Z,6.78
2023-04-15T22:09:25.998Z,6.76
2023-04-15T22:12:28.693Z,6.73
2023-04-15T22:15:31.314Z,6.70
2023-04-15T22:18:33.908Z,6.72
2023-04-15T22:21:36.620Z,6.67
2023-04-15T22:24:40.751Z,6.72
2023-04-15T22:27:43.811Z,6.74
2023-04-15T22:30:46.985Z,6.68
2023-04-15T22:33:49.776Z,6.78
2023-04-15T22:36:53.199Z,6.76
2023-04-15T22:39:55.876Z,6.71
2023-04-15T22:42:58.735Z,6.68
2023-04-15T22:46:01.542Z,6.61
2023-04-15T22:49:09.629Z,6.74
2023-04-15T22:52:23.351Z,6.70
2023-04-15T22:55:30.232Z,6.52
2023-04-15T22:58:32.989Z,6.47
2023-04-15T23:01:35.873Z,6.51
2023-04-15T23:04:38.680Z,6.52
2023-04-15T23:07:41.563Z,6.55
2023-04-15T23:10:44.699Z,6.60
2023-04-15T23:13:47.581Z,6.54
2023-04-15T23:16:50.494Z,6.57
2023-04-15T23:19:53.389Z,6.56
2023-04-15T23:22:56.289Z,6.60
2023-04-15T23:25:59.508Z,6.41
2023-04-15T23:29:02.269Z,6.23
2023-04-15T23:32:06.288Z,6.22
2023-04-15T23:35:09.276Z,6.14
2023-04-15T23:38:12.357Z,6.06
2023-04-15T23:41:15.076Z,6.19
2023-04-15T23:44:18.248Z,6.12
2023-04-15T23:47:21.160Z,6.19
2023-04-15T23:50:24.442Z,6.23
2023-04-15T23:53:27.702Z,6.16
2023-04-15T23:56:30.486Z,6.02
2023-04-15T23:59:33.141Z,6.03
